Time;durP1;ratioP1;P1;durP2;ratioP2;P2;SDS_P1;SDS_P2;PMS_P1;PMS_P2;Temp;Humidity;BMP_temperature;BMP_pressure;BME280_temperature;BME280_humidity;BME280_pressure;Samples;Min_cycle;Max_cycle;Signal;HPM_P1;HPM_P2
2024/04/10 00:00:12;;;;;;;2.55;1.00;;;;;;;;;;5405437;26;20348;-65
2024/04/10 00:02:39;;;;;;;2.70;0.90;;;;;;;;;;5392011;26;21031;-64
2024/04/10 00:05:06;;;;;;;1.48;0.98;;;;;;;;;;5385804;26;20035;-65
2024/04/10 00:07:33;;;;;;;3.67;1.10;;;;;;;;;;5402070;26;20032;-65
2024/04/10 00:09:59;;;;;;;3.90;0.82;;;;;;;;;;5395596;26;20023;-65
2024/04/10 00:12:25;;;;;;;2.65;0.90;;;;;;;;;;5403002;26;20023;-65
2024/04/10 00:14:51;;;;;;;5.47;1.10;;;;;;;;;;5402143;26;20035;-65
2024/04/10 00:17:17;;;;;;;3.03;0.85;;;;;;;;;;5391789;26;20044;-65
2024/04/10 00:19:52;;;;;;;2.97;1.30;;;;;;;;;;5384442;26;20414;-65
2024/04/10 00:22:18;;;;;;;3.47;1.00;;;;;;;;;;5380920;26;20036;-66
2024/04/10 00:24:44;;;;;;;2.25;0.95;;;;;;;;;;5396516;26;20028;-66
2024/04/10 00:27:11;;;;;;;1.70;0.75;;;;;;;;;;5398238;26;20495;-65
2024/04/10 00:29:37;;;;;;;2.78;1.10;;;;;;;;;;5404226;26;20040;-66
2024/04/10 00:32:04;;;;;;;3.22;0.80;;;;;;;;;;5401158;26;20040;-66
2024/04/10 00:34:30;;;;;;;1.15;1.00;;;;;;;;;;5394643;26;20035;-66
2024/04/10 00:36:56;;;;;;;2.95;0.98;;;;;;;;;;5404452;26;20025;-65
2024/04/10 00:39:22;;;;;;;3.53;1.10;;;;;;;;;;5394330;26;20377;-66
2024/04/10 00:41:48;;;;;;;5.28;1.25;;;;;;;;;;5404569;26;20110;-66
2024/04/10 00:44:14;;;;;;;2.17;0.93;;;;;;;;;;5396076;26;20468;-65
2024/04/10 00:46:41;;;;;;;4.05;1.00;;;;;;;;;;5402891;26;20039;-66
2024/04/10 00:49:07;;;;;;;5.68;1.20;;;;;;;;;;5397221;26;21970;-65
2024/04/10 00:51:33;;;;;;;2.08;0.88;;;;;;;;;;5397448;26;20422;-65
2024/04/10 00:54:02;;;;;;;1.65;1.00;;;;;;;;;;5414400;26;20043;-64
2024/04/10 00:56:28;;;;;;;0.95;0.70;;;;;;;;;;5393471;26;20503;-65
2024/04/10 00:58:57;;;;;;;1.48;1.00;;;;;;;;;;5383629;26;20056;-65
2024/04/10 01:01:23;;;;;;;2.47;0.93;;;;;;;;;;5391371;26;20036;-65
2024/04/10 01:03:49;;;;;;;2.95;1.27;;;;;;;;;;5393109;26;20269;-65
2024/04/10 01:06:16;;;;;;;2.80;0.70;;;;;;;;;;5356075;26;20032;-65
2024/04/10 01:08:42;;;;;;;2.33;1.30;;;;;;;;;;5396749;26;20036;-65
2024/04/10 01:11:10;;;;;;;3.42;1.10;;;;;;;;;;5402051;26;20354;-65
2024/04/10 01:13:36;;;;;;;2.70;1.00;;;;;;;;;;5398271;26;20609;-65
2024/04/10 01:16:03;;;;;;;2.08;0.90;;;;;;;;;;5398299;26;20043;-65
2024/04/10 01:18:29;;;;;;;2.80;0.77;;;;;;;;;;5395984;26;20041;-65
2024/04/10 01:20:55;;;;;;;3.38;1.00;;;;;;;;;;5394850;26;20379;-65
2024/04/10 01:23:22;;;;;;;3.53;1.00;;;;;;;;;;5394667;26;20036;-65
2024/04/10 01:25:48;;;;;;;4.20;1.10;;;;;;;;;;5407557;26;20028;-65
2024/04/10 01:28:14;;;;;;;2.45;0.95;;;;;;;;;;5399044;26;20036;-65
2024/04/10 01:30:41;;;;;;;2.92;0.75;;;;;;;;;;5383010;26;20031;-65
2024/04/10 01:33:07;;;;;;;4.25;0.80;;;;;;;;;;5390620;26;20507;-65
2024/04/10 01:35:33;;;;;;;2.58;0.82;;;;;;;;;;5406830;26;20039;-65
2024/04/10 01:37:59;;;;;;;1.05;0.68;;;;;;;;;;5403685;26;20047;-65
2024/04/10 01:40:27;;;;;;;3.38;0.90;;;;;;;;;;5400465;26;20023;-65
2024/04/10 01:42:53;;;;;;;1.85;0.80;;;;;;;;;;5384221;26;20323;-65
2024/04/10 01:45:19;;;;;;;3.97;1.00;;;;;;;;;;5386624;26;20032;-65
2024/04/10 01:47:45;;;;;;;3.70;1.10;;;;;;;;;;5413577;26;20040;-65
2024/04/10 01:50:12;;;;;;;2.55;0.90;;;;;;;;;;5409673;26;20050;-65
2024/04/10 01:52:38;;;;;;;1.40;0.60;;;;;;;;;;5396847;26;20052;-65
2024/04/10 01:55:04;;;;;;;2.38;0.80;;;;;;;;;;5412524;26;20360;-65
2024/04/10 01:57:31;;;;;;;2.00;0.70;;;;;;;;;;5402281;26;20023;-65
2024/04/10 01:59:57;;;;;;;2.97;1.20;;;;;;;;;;5406742;26;20063;-65
2024/04/10 02:02:23;;;;;;;3.80;1.08;;;;;;;;;;5389493;26;20040;-65
2024/04/10 02:04:49;;;;;;;2.40;0.70;;;;;;;;;;5391899;26;20035;-65
2024/04/10 02:07:15;;;;;;;1.60;0.90;;;;;;;;;;5401908;26;20047;-66
2024/04/10 02:09:41;;;;;;;3.63;0.90;;;;;;;;;;5387495;26;20035;-65
2024/04/10 02:12:08;;;;;;;2.50;0.80;;;;;;;;;;5397840;26;20502;-65
2024/04/10 02:14:35;;;;;;;2.45;0.80;;;;;;;;;;5399850;26;20378;-63
2024/04/10 02:17:04;;;;;;;2.47;0.90;;;;;;;;;;5390670;26;20499;-64
2024/04/10 02:19:30;;;;;;;3.63;0.90;;;;;;;;;;5380595;26;20028;-65
2024/04/10 02:21:57;;;;;;;1.90;0.77;;;;;;;;;;5378781;26;20453;-65
2024/04/10 02:24:23;;;;;;;7.10;1.23;;;;;;;;;;5378473;26;20004;-65
2024/04/10 02:26:49;;;;;;;1.95;0.80;;;;;;;;;;5403461;26;20043;-65
2024/04/10 02:29:17;;;;;;;4.22;1.15;;;;;;;;;;5399962;26;20031;-65
2024/04/10 02:31:43;;;;;;;4.00;1.05;;;;;;;;;;5403311;26;20032;-65
2024/04/10 02:34:09;;;;;;;2.95;0.80;;;;;;;;;;5407823;26;20352;-65
2024/04/10 02:36:35;;;;;;;3.38;1.33;;;;;;;;;;5405936;26;20023;-65
2024/04/10 02:39:01;;;;;;;4.63;0.85;;;;;;;;;;5415081;26;20460;-66
2024/04/10 02:41:27;;;;;;;3.67;0.80;;;;;;;;;;5401102;26;20469;-65
2024/04/10 02:43:53;;;;;;;3.97;0.98;;;;;;;;;;5402926;26;20035;-65
2024/04/10 02:46:19;;;;;;;3.38;0.70;;;;;;;;;;5405294;26;20031;-65
2024/04/10 02:48:45;;;;;;;2.40;1.00;;;;;;;;;;5408578;26;20032;-64
2024/04/10 02:51:11;;;;;;;5.68;1.27;;;;;;;;;;5406124;26;20038;-65
2024/04/10 02:53:37;;;;;;;2.90;0.75;;;;;;;;;;5409324;26;20048;-65
2024/04/10 02:56:04;;;;;;;3.08;0.93;;;;;;;;;;5400739;26;20028;-65
2024/04/10 02:58:30;;;;;;;2.80;1.10;;;;;;;;;;5397881;26;20040;-64
2024/04/10 03:00:57;;;;;;;3.47;0.90;;;;;;;;;;5394073;26;20031;-65
2024/04/10 03:03:24;;;;;;;4.63;1.25;;;;;;;;;;5390875;26;20031;-64
2024/04/10 03:06:04;;;;;;;4.22;0.95;;;;;;;;;;5402141;26;20459;-64
2024/04/10 03:08:31;;;;;;;3.40;1.20;;;;;;;;;;5391785;26;20032;-65
2024/04/10 03:10:57;;;;;;;4.25;1.20;;;;;;;;;;5399148;26;20367;-64
2024/04/10 03:13:24;;;;;;;5.70;0.90;;;;;;;;;;5399538;26;20031;-65
2024/04/10 03:15:50;;;;;;;4.57;0.80;;;;;;;;;;5405093;26;20372;-65
2024/04/10 03:18:19;;;;;;;2.60;0.85;;;;;;;;;;5391543;26;20035;-65
2024/04/10 03:20:45;;;;;;;4.65;1.33;;;;;;;;;;5403474;26;20404;-66
2024/04/10 03:23:12;;;;;;;1.80;0.98;;;;;;;;;;5428279;26;20385;-65
2024/04/10 03:25:38;;;;;;;3.47;1.10;;;;;;;;;;5407582;26;20036;-65
2024/04/10 03:28:05;;;;;;;2.67;0.73;;;;;;;;;;5398779;26;20512;-65
2024/04/10 03:30:35;;;;;;;3.17;0.80;;;;;;;;;;5406355;26;20040;-65
2024/04/10 03:33:01;;;;;;;4.15;0.98;;;;;;;;;;5403254;26;20032;-65
2024/04/10 03:35:28;;;;;;;9.40;1.02;;;;;;;;;;5405205;26;20464;-65
2024/04/10 03:37:54;;;;;;;5.35;0.70;;;;;;;;;;5407177;26;20487;-65
2024/04/10 03:40:21;;;;;;;1.88;0.90;;;;;;;;;;5410711;26;20026;-65
2024/04/10 03:42:48;;;;;;;5.90;1.15;;;;;;;;;;5398218;26;20032;-65
2024/04/10 03:45:14;;;;;;;2.75;1.00;;;;;;;;;;5414788;26;20036;-66
2024/04/10 03:47:41;;;;;;;5.05;0.88;;;;;;;;;;5401309;26;20384;-65
2024/04/10 03:50:08;;;;;;;4.70;0.90;;;;;;;;;;5403307;26;20359;-66
2024/04/10 03:52:34;;;;;;;4.45;0.90;;;;;;;;;;5395328;26;20496;-66
2024/04/10 03:55:00;;;;;;;3.58;1.88;;;;;;;;;;5408505;26;20354;-65
2024/04/10 03:57:29;;;;;;;3.42;1.17;;;;;;;;;;5391571;26;20040;-65
2024/04/10 03:59:55;;;;;;;5.40;0.90;;;;;;;;;;5404329;26;20032;-64
2024/04/10 04:02:22;;;;;;;2.65;1.20;;;;;;;;;;5399697;26;20035;-65
2024/04/10 04:04:48;;;;;;;1.80;0.93;;;;;;;;;;5383376;26;20016;-65
2024/04/10 04:07:14;;;;;;;3.95;1.00;;;;;;;;;;5391476;26;20036;-65
2024/04/10 04:09:41;;;;;;;2.10;1.10;;;;;;;;;;5401773;26;20040;-65
2024/04/10 04:12:09;;;;;;;1.95;0.75;;;;;;;;;;5388731;26;20344;-66
2024/04/10 04:14:35;;;;;;;8.73;1.77;;;;;;;;;;5395802;26;20562;-65
2024/04/10 04:17:01;;;;;;;3.75;1.90;;;;;;;;;;5394842;26;20078;-66
2024/04/10 04:19:28;;;;;;;4.50;1.35;;;;;;;;;;5384335;26;20490;-66
2024/04/10 04:21:54;;;;;;;3.03;1.17;;;;;;;;;;5390670;26;20063;-66
2024/04/10 04:24:20;;;;;;;5.38;1.33;;;;;;;;;;5399550;26;20047;-66
2024/04/10 04:26:46;;;;;;;4.00;1.25;;;;;;;;;;5389068;26;20050;-66
2024/04/10 04:29:12;;;;;;;4.57;1.10;;;;;;;;;;5406214;26;20048;-65
2024/04/10 04:31:38;;;;;;;5.43;0.95;;;;;;;;;;5404824;26;20468;-66
2024/04/10 04:34:09;;;;;;;4.88;1.00;;;;;;;;;;5412998;26;20035;-66
2024/04/10 04:36:38;;;;;;;3.75;0.98;;;;;;;;;;5401476;26;20039;-66
2024/04/10 04:39:07;;;;;;;4.75;1.50;;;;;;;;;;5414893;26;20031;-65
2024/04/10 04:41:34;;;;;;;5.63;1.40;;;;;;;;;;5387782;26;20028;-66
2024/04/10 04:44:00;;;;;;;4.30;1.42;;;;;;;;;;5410067;26;20035;-66
2024/04/10 04:46:26;;;;;;;3.33;1.00;;;;;;;;;;5407100;26;20496;-66
2024/04/10 04:48:52;;;;;;;4.55;1.30;;;;;;;;;;5392469;26;20055;-66
2024/04/10 04:51:18;;;;;;;3.92;1.33;;;;;;;;;;5406339;26;20034;-66
2024/04/10 04:53:44;;;;;;;3.80;1.27;;;;;;;;;;5411987;26;20032;-66
2024/04/10 04:56:10;;;;;;;4.15;1.13;;;;;;;;;;5399111;26;20065;-66
2024/04/10 04:58:36;;;;;;;3.75;0.93;;;;;;;;;;5388373;26;21896;-66
2024/04/10 05:01:02;;;;;;;3.33;1.20;;;;;;;;;;5390518;26;20675;-64
2024/04/10 05:06:14;;;;;;;6.55;1.10;;;;;;;;;;5392635;26;20028;-65
2024/04/10 05:08:40;;;;;;;2.65;1.10;;;;;;;;;;5395681;26;20032;-65
2024/04/10 05:11:07;;;;;;;3.22;0.80;;;;;;;;;;5390360;26;20402;-65
2024/04/10 05:13:33;;;;;;;3.50;1.40;;;;;;;;;;5381438;26;20032;-65
2024/04/10 05:15:59;;;;;;;5.03;1.38;;;;;;;;;;5390352;26;20040;-63
2024/04/10 05:18:26;;;;;;;3.83;1.30;;;;;;;;;;5396935;26;20495;-64
2024/04/10 05:20:52;;;;;;;5.47;1.17;;;;;;;;;;5379666;26;20031;-63
2024/04/10 05:23:18;;;;;;;5.70;1.95;;;;;;;;;;5392546;26;20052;-64
2024/04/10 05:25:46;;;;;;;2.85;1.40;;;;;;;;;;5397715;26;20037;-65
2024/04/10 05:28:12;;;;;;;4.13;2.08;;;;;;;;;;5391610;26;20031;-65
2024/04/10 05:30:38;;;;;;;5.80;1.80;;;;;;;;;;5404972;26;20051;-64
2024/04/10 05:33:04;;;;;;;3.67;1.90;;;;;;;;;;5401784;26;20351;-65
2024/04/10 05:35:30;;;;;;;1.75;1.30;;;;;;;;;;5398439;26;20043;-65
2024/04/10 05:37:58;;;;;;;2.67;1.17;;;;;;;;;;5401164;26;20040;-64
2024/04/10 05:40:25;;;;;;;4.28;1.35;;;;;;;;;;5380915;26;20004;-64
2024/04/10 05:42:51;;;;;;;3.78;1.05;;;;;;;;;;5387422;26;20052;-64
2024/04/10 05:45:18;;;;;;;2.88;1.15;;;;;;;;;;5388789;26;20008;-64
2024/04/10 05:47:50;;;;;;;2.50;1.05;;;;;;;;;;5391129;26;20040;-64
2024/04/10 05:50:22;;;;;;;7.50;1.33;;;;;;;;;;5390461;26;20428;-64
2024/04/10 05:52:48;;;;;;;2.72;1.00;;;;;;;;;;5381467;26;20023;-64
2024/04/10 05:55:14;;;;;;;4.40;0.90;;;;;;;;;;5394199;26;20027;-65
2024/04/10 05:57:40;;;;;;;4.47;1.25;;;;;;;;;;5396344;26;20042;-64
2024/04/10 06:00:09;;;;;;;3.60;1.00;;;;;;;;;;5397443;26;20024;-64
2024/04/10 06:02:38;;;;;;;3.63;1.20;;;;;;;;;;5388514;26;20032;-63
2024/04/10 06:05:05;;;;;;;4.97;1.52;;;;;;;;;;5390193;26;20028;-64
2024/04/10 06:07:35;;;;;;;5.35;1.42;;;;;;;;;;5391733;26;20018;-64
2024/04/10 06:10:01;;;;;;;4.97;1.58;;;;;;;;;;5362128;26;20030;-64
2024/04/10 06:12:27;;;;;;;5.13;1.40;;;;;;;;;;5387028;26;20024;-65
2024/04/10 06:14:54;;;;;;;7.68;1.52;;;;;;;;;;5393294;26;20027;-63
2024/04/10 06:17:22;;;;;;;3.83;1.38;;;;;;;;;;5389965;26;20064;-63
2024/04/10 06:19:48;;;;;;;3.63;1.20;;;;;;;;;;5400304;26;20044;-63
2024/04/10 06:22:15;;;;;;;3.05;1.90;;;;;;;;;;5395672;26;20491;-64
2024/04/10 06:24:45;;;;;;;5.88;1.40;;;;;;;;;;5390699;26;20044;-63
2024/04/10 06:27:13;;;;;;;5.07;1.48;;;;;;;;;;5414140;26;20566;-64
2024/04/10 06:29:45;;;;;;;9.65;1.65;;;;;;;;;;5405963;26;20661;-64
2024/04/10 06:32:13;;;;;;;5.05;1.50;;;;;;;;;;5402658;26;20742;-64
2024/04/10 06:34:40;;;;;;;5.00;1.45;;;;;;;;;;5408356;26;20366;-64
2024/04/10 06:37:07;;;;;;;4.47;1.45;;;;;;;;;;5411972;26;20043;-65
2024/04/10 06:39:34;;;;;;;5.97;1.90;;;;;;;;;;5402780;26;20027;-65
2024/04/10 06:42:00;;;;;;;5.18;1.70;;;;;;;;;;5396176;26;20048;-65
2024/04/10 06:44:26;;;;;;;7.30;1.63;;;;;;;;;;5394426;26;20027;-64
2024/04/10 06:46:52;;;;;;;4.70;1.40;;;;;;;;;;5392058;26;20040;-64
2024/04/10 06:49:19;;;;;;;4.13;1.40;;;;;;;;;;5387655;26;20373;-64
2024/04/10 06:51:45;;;;;;;4.18;1.40;;;;;;;;;;5394600;26;20048;-63
2024/04/10 06:54:12;;;;;;;7.25;1.50;;;;;;;;;;5379491;26;20130;-63
2024/04/10 06:56:38;;;;;;;5.97;1.63;;;;;;;;;;5395422;26;20040;-63
2024/04/10 06:59:04;;;;;;;4.47;1.95;;;;;;;;;;5383942;26;20040;-64
2024/04/10 07:01:30;;;;;;;5.45;1.40;;;;;;;;;;5387480;26;20048;-63
2024/04/10 07:03:56;;;;;;;4.65;1.63;;;;;;;;;;5387376;26;20035;-64
2024/04/10 07:06:22;;;;;;;6.07;1.60;;;;;;;;;;5395427;26;20043;-63
2024/04/10 07:08:50;;;;;;;3.38;1.73;;;;;;;;;;5385139;26;20388;-64
2024/04/10 07:11:20;;;;;;;4.18;1.67;;;;;;;;;;5381339;26;20008;-66
2024/04/10 07:13:50;;;;;;;5.65;1.50;;;;;;;;;;5387209;26;20018;-63
2024/04/10 07:16:16;;;;;;;2.50;1.73;;;;;;;;;;5397702;26;20036;-66
2024/04/10 07:18:44;;;;;;;5.40;1.77;;;;;;;;;;5388368;26;20034;-64
2024/04/10 07:21:12;;;;;;;5.55;1.42;;;;;;;;;;5400116;26;20451;-64
2024/04/10 07:23:40;;;;;;;5.90;1.60;;;;;;;;;;5386270;26;20012;-63
2024/04/10 07:26:07;;;;;;;7.32;1.75;;;;;;;;;;5410045;26;20024;-64
2024/04/10 07:28:34;;;;;;;9.45;2.53;;;;;;;;;;5411504;26;20027;-64
2024/04/10 07:31:00;;;;;;;5.85;1.88;;;;;;;;;;5396861;26;20163;-65
2024/04/10 07:33:26;;;;;;;8.82;2.00;;;;;;;;;;5385463;26;20353;-64
2024/04/10 07:35:52;;;;;;;6.13;1.90;;;;;;;;;;5402458;26;20366;-64
2024/04/10 07:38:18;;;;;;;7.93;1.95;;;;;;;;;;5405800;26;20023;-64
2024/04/10 07:40:55;;;;;;;5.60;1.50;;;;;;;;;;5401161;26;20039;-64
2024/04/10 07:43:21;;;;;;;5.53;1.70;;;;;;;;;;5398441;26;20070;-63
2024/04/10 07:45:47;;;;;;;5.68;1.65;;;;;;;;;;5402948;26;20037;-65
2024/04/10 07:48:13;;;;;;;5.65;1.23;;;;;;;;;;5391801;26;20031;-65
2024/04/10 07:50:39;;;;;;;4.47;1.55;;;;;;;;;;5391795;26;20047;-65
2024/04/10 07:53:06;;;;;;;8.48;1.85;;;;;;;;;;5396617;26;20474;-65
2024/04/10 07:55:32;;;;;;;5.07;1.88;;;;;;;;;;5384190;26;20051;-64
2024/04/10 07:57:58;;;;;;;8.95;1.85;;;;;;;;;;5385385;26;20086;-65
2024/04/10 08:00:24;;;;;;;6.28;1.70;;;;;;;;;;5386319;26;20028;-64
2024/04/10 08:02:50;;;;;;;7.20;1.75;;;;;;;;;;5392003;26;20580;-65
2024/04/10 08:05:16;;;;;;;6.05;1.75;;;;;;;;;;5396190;26;20024;-65
2024/04/10 08:07:43;;;;;;;9.10;1.67;;;;;;;;;;5384246;26;20004;-65
2024/04/10 08:10:10;;;;;;;5.63;1.58;;;;;;;;;;5390340;26;20003;-65
2024/04/10 08:12:36;;;;;;;7.35;1.60;;;;;;;;;;5391799;26;20036;-67
2024/04/10 08:15:02;;;;;;;4.28;1.77;;;;;;;;;;5398910;26;20048;-67
2024/04/10 08:17:30;;;;;;;3.70;1.23;;;;;;;;;;5395005;26;20027;-64
2024/04/10 08:19:56;;;;;;;8.07;1.98;;;;;;;;;;5389276;26;20007;-66
2024/04/10 08:22:22;;;;;;;9.90;2.22;;;;;;;;;;5391080;26;20048;-65
2024/04/10 08:24:50;;;;;;;6.53;1.30;;;;;;;;;;5393975;26;20311;-65
2024/04/10 08:27:16;;;;;;;6.30;1.85;;;;;;;;;;5414724;26;20026;-64
2024/04/10 08:29:47;;;;;;;7.72;1.85;;;;;;;;;;5390112;26;20036;-65
2024/04/10 08:32:13;;;;;;;7.68;1.90;;;;;;;;;;5399884;26;20577;-65
2024/04/10 08:34:39;;;;;;;6.78;1.60;;;;;;;;;;5394953;26;20127;-65
2024/04/10 08:37:06;;;;;;;7.35;1.85;;;;;;;;;;5397241;26;20044;-65
2024/04/10 08:40:58;;;;;;;4.72;1.35;;;;;;;;;;5518417;25;20755;-64
2024/04/10 08:43:31;;;;;;;6.03;1.35;;;;;;;;;;5473366;25;19998;-64
2024/04/10 08:45:57;;;;;;;6.05;1.25;;;;;;;;;;5459406;26;20139;-64
2024/04/10 08:48:25;;;;;;;7.45;1.48;;;;;;;;;;5495082;25;20388;-64
2024/04/10 08:50:53;;;;;;;8.07;2.00;;;;;;;;;;5457159;25;20057;-64
2024/04/10 08:53:19;;;;;;;6.82;1.42;;;;;;;;;;5478784;25;20116;-65
2024/04/10 08:55:46;;;;;;;8.77;1.38;;;;;;;;;;5488918;25;20030;-65
2024/04/10 08:58:13;;;;;;;6.03;1.70;;;;;;;;;;5487909;25;20039;-65
2024/04/10 09:00:45;;;;;;;7.75;1.83;;;;;;;;;;5486755;25;20161;-64
2024/04/10 09:03:12;;;;;;;4.18;1.10;;;;;;;;;;5478086;25;20494;-64
2024/04/10 09:05:39;;;;;;;6.38;1.40;;;;;;;;;;5454298;26;20147;-64
2024/04/10 09:08:06;;;;;;;7.22;1.48;;;;;;;;;;5472584;25;20033;-65
2024/04/10 09:10:32;;;;;;;5.40;1.67;;;;;;;;;;5454122;25;20025;-65
2024/04/10 09:13:05;;;;;;;9.70;1.52;;;;;;;;;;5477984;25;20142;-65
2024/04/10 09:15:32;;;;;;;8.10;1.98;;;;;;;;;;5483307;25;20035;-65
2024/04/10 09:17:59;;;;;;;7.60;1.45;;;;;;;;;;5462225;26;20030;-65
2024/04/10 09:20:25;;;;;;;7.35;1.60;;;;;;;;;;5468329;25;20501;-65
2024/04/10 09:23:05;;;;;;;4.00;1.13;;;;;;;;;;5501530;25;20149;-65
2024/04/10 09:25:32;;;;;;;7.75;1.45;;;;;;;;;;5493035;25;20108;-64
2024/04/10 09:28:04;;;;;;;7.00;1.20;;;;;;;;;;5460349;25;20010;-67
2024/04/10 09:30:34;;;;;;;6.20;1.00;;;;;;;;;;5500260;25;20026;-65
2024/04/10 09:33:02;;;;;;;5.18;1.70;;;;;;;;;;5488069;25;20030;-65
2024/04/10 09:35:30;;;;;;;4.30;1.20;;;;;;;;;;5483036;25;20022;-65
2024/04/10 09:38:00;;;;;;;6.32;1.60;;;;;;;;;;5499821;25;20034;-65
2024/04/10 09:40:27;;;;;;;5.28;1.45;;;;;;;;;;5455518;26;20011;-65
2024/04/10 09:43:05;;;;;;;8.40;1.45;;;;;;;;;;5455553;26;20057;-65
2024/04/10 09:45:35;;;;;;;4.20;1.20;;;;;;;;;;5494921;25;20494;-65
2024/04/10 09:48:06;;;;;;;5.20;1.00;;;;;;;;;;5455110;25;20029;-65
2024/04/10 09:50:38;;;;;;;7.03;1.13;;;;;;;;;;5446517;26;20034;-65
2024/04/10 09:53:05;;;;;;;7.47;1.13;;;;;;;;;;5470815;26;20026;-65
2024/04/10 09:55:39;;;;;;;7.00;1.23;;;;;;;;;;5472318;26;20387;-65
2024/04/10 09:58:07;;;;;;;5.95;1.13;;;;;;;;;;5438774;26;20030;-65
2024/04/10 10:00:34;;;;;;;6.70;1.45;;;;;;;;;;5462768;26;20162;-66
2024/04/10 10:03:03;;;;;;;5.53;1.20;;;;;;;;;;5467922;26;20034;-66
2024/04/10 10:05:30;;;;;;;4.47;1.10;;;;;;;;;;5462968;26;20027;-65
2024/04/10 10:08:06;;;;;;;8.52;1.30;;;;;;;;;;5460898;26;20033;-67
2024/04/10 10:10:46;;;;;;;7.32;1.33;;;;;;;;;;5465742;26;20415;-65
2024/04/10 10:13:12;;;;;;;4.05;0.98;;;;;;;;;;5461199;26;20050;-65
2024/04/10 10:15:40;;;;;;;5.57;1.90;;;;;;;;;;5464533;26;20027;-65
2024/04/10 10:18:06;;;;;;;4.95;1.20;;;;;;;;;;5480384;26;20034;-66
2024/04/10 10:20:33;;;;;;;5.38;1.15;;;;;;;;;;5449203;26;20030;-64
2024/04/10 10:23:01;;;;;;;5.70;0.98;;;;;;;;;;5484182;26;20030;-64
2024/04/10 10:25:27;;;;;;;5.82;1.20;;;;;;;;;;5479375;26;20652;-64
2024/04/10 10:28:10;;;;;;;8.80;1.00;;;;;;;;;;5446161;26;20042;-65
2024/04/10 10:30:36;;;;;;;2.95;0.77;;;;;;;;;;5411832;26;20012;-65
2024/04/10 10:33:04;;;;;;;8.30;1.35;;;;;;;;;;5490079;26;20038;-64
2024/04/10 10:35:30;;;;;;;8.27;1.40;;;;;;;;;;5453755;26;20030;-65
2024/04/10 10:37:57;;;;;;;5.25;1.35;;;;;;;;;;5479806;26;20030;-65
2024/04/10 10:40:24;;;;;;;7.22;1.30;;;;;;;;;;5478432;26;20042;-65
2024/04/10 10:43:07;;;;;;;6.22;1.10;;;;;;;;;;5449803;26;20386;-64
2024/04/10 10:45:35;;;;;;;4.63;1.20;;;;;;;;;;5449016;26;20494;-65
2024/04/10 10:48:03;;;;;;;5.53;1.08;;;;;;;;;;5478867;26;20030;-67
2024/04/10 10:50:29;;;;;;;7.45;1.05;;;;;;;;;;5431065;26;20031;-64
2024/04/10 10:52:57;;;;;;;6.47;1.25;;;;;;;;;;5433592;26;20517;-65
2024/04/10 10:55:24;;;;;;;8.88;2.10;;;;;;;;;;5436105;26;20026;-65
2024/04/10 10:58:00;;;;;;;7.85;2.10;;;;;;;;;;5463168;26;20042;-65
2024/04/10 11:00:33;;;;;;;6.05;2.00;;;;;;;;;;5406339;26;20024;-65
2024/04/10 11:03:05;;;;;;;6.07;1.75;;;;;;;;;;5437208;26;20029;-65
2024/04/10 11:05:31;;;;;;;5.28;1.50;;;;;;;;;;5393881;26;20028;-65
2024/04/10 11:07:58;;;;;;;5.68;1.83;;;;;;;;;;5428646;26;20043;-64
2024/04/10 11:10:27;;;;;;;6.03;1.77;;;;;;;;;;5418399;26;20006;-64
2024/04/10 11:13:02;;;;;;;3.80;1.60;;;;;;;;;;5459938;26;20121;-65
2024/04/10 11:15:28;;;;;;;5.95;1.33;;;;;;;;;;5463987;26;20046;-65
2024/04/10 11:18:04;;;;;;;6.32;1.95;;;;;;;;;;5428789;26;20030;-65
2024/04/10 11:20:31;;;;;;;4.85;1.50;;;;;;;;;;5464513;26;20014;-65
2024/04/10 11:23:01;;;;;;;4.10;1.40;;;;;;;;;;5470884;26;20466;-65
2024/04/10 11:25:31;;;;;;;5.15;1.75;;;;;;;;;;5446918;26;20038;-65
2024/04/10 11:27:57;;;;;;;;;;;;;;;;;;5462232;26;20030;-65
2024/04/10 11:30:24;;;;;;;5.25;1.50;;;;;;;;;;5473398;26;19957;-65
2024/04/10 11:32:54;;;;;;;3.55;1.20;;;;;;;;;;5473440;26;20391;-64
2024/04/10 11:35:21;;;;;;;5.72;1.45;;;;;;;;;;5477708;26;20149;-65
2024/04/10 11:37:55;;;;;;;4.05;1.40;;;;;;;;;;5479385;26;20035;-63
2024/04/10 11:40:22;;;;;;;3.65;1.13;;;;;;;;;;5454476;26;20504;-64
2024/04/10 11:42:49;;;;;;;5.55;1.60;;;;;;;;;;5447326;26;20051;-65
2024/04/10 11:45:16;;;;;;;4.65;1.10;;;;;;;;;;5445801;26;20022;-65
2024/04/10 11:47:44;;;;;;;3.63;0.85;;;;;;;;;;5465610;26;20030;-65
2024/04/10 11:50:12;;;;;;;5.07;1.13;;;;;;;;;;5437539;26;20033;-65
2024/04/10 11:52:44;;;;;;;4.18;1.20;;;;;;;;;;5462802;26;20007;-66
2024/04/10 11:55:10;;;;;;;4.03;1.40;;;;;;;;;;5439693;25;20069;-66
2024/04/10 11:57:36;;;;;;;5.47;1.38;;;;;;;;;;5461559;26;20040;-65
2024/04/10 12:00:06;;;;;;;4.25;1.17;;;;;;;;;;5474234;26;20026;-66
2024/04/10 12:02:39;;;;;;;3.50;1.20;;;;;;;;;;5458093;26;20052;-66
2024/04/10 12:05:05;;;;;;;3.35;0.95;;;;;;;;;;5464384;26;20050;-65
2024/04/10 12:07:33;;;;;;;6.95;1.10;;;;;;;;;;5434837;26;20394;-66
2024/04/10 12:10:00;;;;;;;7.20;1.17;;;;;;;;;;5462480;26;20029;-65
2024/04/10 12:12:28;;;;;;;4.85;1.13;;;;;;;;;;5440580;26;20037;-65
2024/04/10 12:14:54;;;;;;;3.30;0.95;;;;;;;;;;5483628;26;20044;-65
2024/04/10 12:17:21;;;;;;;4.93;1.25;;;;;;;;;;5472755;26;20034;-65
2024/04/10 12:19:47;;;;;;;6.53;1.25;;;;;;;;;;5461856;26;20545;-65
2024/04/10 12:22:13;;;;;;;6.90;1.20;;;;;;;;;;5473571;26;20002;-65
2024/04/10 12:24:40;;;;;;;3.85;1.13;;;;;;;;;;5422034;26;20024;-65
2024/04/10 12:27:06;;;;;;;5.47;1.13;;;;;;;;;;5449810;26;20033;-65
2024/04/10 12:29:33;;;;;;;3.70;1.10;;;;;;;;;;5474539;25;20073;-67
2024/04/10 12:31:59;;;;;;;4.38;1.30;;;;;;;;;;5437128;26;20002;-65
2024/04/10 12:34:26;;;;;;;6.63;1.33;;;;;;;;;;5445018;26;20038;-65
2024/04/10 12:39:36;;;;;;;3.95;1.33;;;;;;;;;;5461523;26;20481;-65
2024/04/10 12:42:04;;;;;;;4.43;1.20;;;;;;;;;;5461297;26;20445;-65
2024/04/10 12:44:30;;;;;;;4.55;1.13;;;;;;;;;;5463390;26;20608;-67
2024/04/10 12:46:58;;;;;;;5.05;1.10;;;;;;;;;;5469782;26;20030;-66
2024/04/10 12:49:25;;;;;;;3.83;0.95;;;;;;;;;;5466191;26;20042;-65
2024/04/10 12:51:53;;;;;;;4.07;1.15;;;;;;;;;;5461643;26;20045;-65
2024/04/10 12:54:20;;;;;;;4.15;1.05;;;;;;;;;;5458997;26;20005;-66
2024/04/10 12:56:46;;;;;;;4.50;1.30;;;;;;;;;;5461949;26;19998;-65
2024/04/10 12:59:14;;;;;;;3.95;1.02;;;;;;;;;;5434134;26;20047;-67
2024/04/10 13:01:40;;;;;;;5.53;0.95;;;;;;;;;;5457870;26;20025;-65
2024/04/10 13:04:06;;;;;;;2.72;0.82;;;;;;;;;;5421979;26;20019;-65
2024/04/10 13:06:33;;;;;;;2.92;0.70;;;;;;;;;;5459834;26;20026;-65
2024/04/10 13:09:00;;;;;;;4.70;1.40;;;;;;;;;;5462426;25;20030;-66
2024/04/10 13:11:26;;;;;;;8.40;4.10;;;;;;;;;;5469998;26;20826;-66
2024/04/10 13:13:53;;;;;;;6.20;1.73;;;;;;;;;;5435289;26;20033;-65
2024/04/10 13:16:20;;;;;;;3.25;1.20;;;;;;;;;;5481891;26;20370;-64
2024/04/10 13:18:46;;;;;;;4.10;1.05;;;;;;;;;;5478721;26;20042;-66
2024/04/10 13:21:12;;;;;;;4.72;1.23;;;;;;;;;;5479255;26;20432;-66
2024/04/10 13:23:41;;;;;;;3.40;1.13;;;;;;;;;;5483209;26;20042;-65
2024/04/10 13:26:08;;;;;;;4.10;1.10;;;;;;;;;;5480232;26;20720;-64
2024/04/10 13:28:36;;;;;;;3.47;1.40;;;;;;;;;;5477086;26;20038;-64
2024/04/10 13:31:11;;;;;;;4.10;0.98;;;;;;;;;;5449530;26;20062;-64
2024/04/10 13:33:40;;;;;;;3.80;1.10;;;;;;;;;;5448833;26;20027;-65
2024/04/10 13:36:10;;;;;;;3.65;0.90;;;;;;;;;;5489338;26;20480;-65
2024/04/10 13:38:37;;;;;;;2.67;1.20;;;;;;;;;;5478671;26;20025;-65
2024/04/10 13:41:05;;;;;;;4.32;0.82;;;;;;;;;;5477944;26;20018;-65
2024/04/10 13:43:32;;;;;;;3.45;0.80;;;;;;;;;;5476390;26;20046;-65
2024/04/10 13:45:59;;;;;;;3.35;1.10;;;;;;;;;;5465479;26;20026;-65
2024/04/10 13:48:25;;;;;;;3.40;0.90;;;;;;;;;;5470601;26;20030;-65
2024/04/10 13:50:51;;;;;;;2.28;0.77;;;;;;;;;;5438805;26;20391;-65
2024/04/10 13:53:17;;;;;;;6.30;1.02;;;;;;;;;;5472098;26;20029;-65
2024/04/10 13:55:44;;;;;;;2.03;0.85;;;;;;;;;;5440085;26;20033;-65
2024/04/10 13:58:10;;;;;;;2.35;0.77;;;;;;;;;;5464688;26;20027;-64
2024/04/10 14:00:36;;;;;;;3.45;0.75;;;;;;;;;;5456038;26;20043;-64
2024/04/10 14:03:05;;;;;;;2.78;0.90;;;;;;;;;;5459841;26;20473;-65
2024/04/10 14:05:31;;;;;;;2.97;1.10;;;;;;;;;;5459682;26;20025;-66
2024/04/10 14:07:58;;;;;;;4.35;1.10;;;;;;;;;;5429791;26;20026;-63
2024/04/10 14:10:25;;;;;;;4.30;1.00;;;;;;;;;;5471501;26;20432;-64
2024/04/10 14:12:51;;;;;;;4.97;1.13;;;;;;;;;;5480128;26;20026;-64
2024/04/10 14:15:17;;;;;;;2.25;0.80;;;;;;;;;;5483023;26;20034;-65
2024/04/10 14:17:45;;;;;;;4.00;1.20;;;;;;;;;;5485462;26;20030;-64
2024/04/10 14:20:12;;;;;;;2.17;1.00;;;;;;;;;;5482830;26;20296;-65
2024/04/10 14:22:38;;;;;;;3.63;0.98;;;;;;;;;;5477603;25;20031;-64
2024/04/10 14:25:05;;;;;;;4.13;1.33;;;;;;;;;;5488955;26;20616;-64
2024/04/10 14:27:31;;;;;;;6.95;1.20;;;;;;;;;;5480974;26;20029;-64
2024/04/10 14:29:57;;;;;;;2.15;0.80;;;;;;;;;;5438948;26;20022;-64
2024/04/10 14:32:24;;;;;;;2.03;0.80;;;;;;;;;;5481997;26;20449;-65
2024/04/10 14:34:51;;;;;;;3.30;1.05;;;;;;;;;;5449846;26;20047;-65
2024/04/10 14:37:17;;;;;;;3.17;1.13;;;;;;;;;;5485132;26;20029;-65
2024/04/10 14:39:44;;;;;;;3.22;0.93;;;;;;;;;;5474005;26;20031;-65
2024/04/10 14:42:10;;;;;;;3.00;1.00;;;;;;;;;;5448090;26;20025;-65
2024/04/10 14:47:05;;;;;;;2.45;0.68;;;;;;;;;;5468211;26;20510;-65
2024/04/10 14:49:31;;;;;;;3.95;0.95;;;;;;;;;;5437643;26;20026;-64
2024/04/10 14:51:58;;;;;;;4.35;1.00;;;;;;;;;;5436697;26;20030;-64